sensor_id;sensor_type;location;lat;lon;timestamp;P1;durP1;ratioP1;P2;durP2;ratioP2
12725;SDS011;6427;49.754;6.106;2023-08-06T00:02:21;6.97;;;2.90;;
12725;SDS011;6427;49.754;6.106;2023-08-06T00:04:50;4.87;;;2.00;;
12725;SDS011;6427;49.754;6.106;2023-08-06T00:07:17;4.97;;;2.20;;
12725;SDS011;6427;49.754;6.106;2023-08-06T00:09:46;4.17;;;2.10;;
12725;SDS011;6427;49.754;6.106;2023-08-06T00:12:13;6.53;;;1.93;;
12725;SDS011;6427;49.754;6.106;2023-08-06T00:14:41;3.30;;;1.60;;
12725;SDS011;6427;49.754;6.106;2023-08-06T00:17:08;6.23;;;2.10;;
12725;SDS011;6427;49.754;6.106;2023-08-06T00:19:36;7.60;;;1.93;;
12725;SDS011;6427;49.754;6.106;2023-08-06T00:22:04;3.67;;;1.90;;
12725;SDS011;6427;49.754;6.106;2023-08-06T00:24:31;5.33;;;2.50;;
12725;SDS011;6427;49.754;6.106;2023-08-06T00:26:59;4.30;;;1.50;;
12725;SDS011;6427;49.754;6.106;2023-08-06T00:29:27;8.17;;;2.00;;
12725;SDS011;6427;49.754;6.106;2023-08-06T00:31:55;2.53;;;1.45;;
12725;SDS011;6427;49.754;6.106;2023-08-06T00:34:23;2.03;;;1.20;;
12725;SDS011;6427;49.754;6.106;2023-08-06T00:36:51;2.40;;;1.00;;
12725;SDS011;6427;49.754;6.106;2023-08-06T00:39:19;3.20;;;1.10;;
12725;SDS011;6427;49.754;6.106;2023-08-06T00:41:47;2.50;;;1.00;;
12725;SDS011;6427;49.754;6.106;2023-08-06T00:44:15;2.33;;;1.27;;
12725;SDS011;6427;49.754;6.106;2023-08-06T00:46:43;3.35;;;1.10;;
12725;SDS011;6427;49.754;6.106;2023-08-06T00:49:11;3.80;;;1.17;;
12725;SDS011;6427;49.754;6.106;2023-08-06T00:51:39;1.87;;;0.90;;
12725;SDS011;6427;49.754;6.106;2023-08-06T00:54:07;2.90;;;0.90;;
12725;SDS011;6427;49.754;6.106;2023-08-06T00:56:35;3.03;;;0.90;;
12725;SDS011;6427;49.754;6.106;2023-08-06T00:59:02;3.07;;;0.70;;
12725;SDS011;6427;49.754;6.106;2023-08-06T01:01:29;2.07;;;0.70;;
12725;SDS011;6427;49.754;6.106;2023-08-06T01:03:57;1.23;;;0.50;;
12725;SDS011;6427;49.754;6.106;2023-08-06T01:06:35;2.27;;;0.60;;
12725;SDS011;6427;49.754;6.106;2023-08-06T01:09:01;0.77;;;0.40;;
12725;SDS011;6427;49.754;6.106;2023-08-06T01:14:11;0.77;;;0.30;;
12725;SDS011;6427;49.754;6.106;2023-08-06T01:16:35;0.27;;;0.27;;
12725;SDS011;6427;49.754;6.106;2023-08-06T01:19:03;0.53;;;0.30;;
12725;SDS011;6427;49.754;6.106;2023-08-06T01:21:31;0.97;;;0.40;;
12725;SDS011;6427;49.754;6.106;2023-08-06T01:23:59;3.20;;;0.60;;
12725;SDS011;6427;49.754;6.106;2023-08-06T01:26:27;2.20;;;0.20;;
12725;SDS011;6427;49.754;6.106;2023-08-06T01:31:43;0.70;;;0.30;;
12725;SDS011;6427;49.754;6.106;2023-08-06T01:34:27;0.63;;;0.50;;
12725;SDS011;6427;49.754;6.106;2023-08-06T01:36:53;0.80;;;0.33;;
12725;SDS011;6427;49.754;6.106;2023-08-06T01:39:21;0.93;;;0.40;;
12725;SDS011;6427;49.754;6.106;2023-08-06T01:41:49;1.30;;;0.20;;
12725;SDS011;6427;49.754;6.106;2023-08-06T01:44:17;1.23;;;0.50;;
12725;SDS011;6427;49.754;6.106;2023-08-06T01:46:44;1.40;;;0.30;;
12725;SDS011;6427;49.754;6.106;2023-08-06T01:49:12;0.33;;;0.20;;
12725;SDS011;6427;49.754;6.106;2023-08-06T01:51:39;0.93;;;0.30;;
12725;SDS011;6427;49.754;6.106;2023-08-06T01:54:07;1.25;;;0.22;;
12725;SDS011;6427;49.754;6.106;2023-08-06T01:56:35;0.63;;;0.47;;
12725;SDS011;6427;49.754;6.106;2023-08-06T01:59:02;1.57;;;0.40;;
12725;SDS011;6427;49.754;6.106;2023-08-06T02:01:30;0.80;;;0.40;;
12725;SDS011;6427;49.754;6.106;2023-08-06T02:03:58;1.33;;;0.20;;
12725;SDS011;6427;49.754;6.106;2023-08-06T02:06:26;1.15;;;0.40;;
12725;SDS011;6427;49.754;6.106;2023-08-06T02:08:53;0.80;;;0.30;;
12725;SDS011;6427;49.754;6.106;2023-08-06T02:11:21;1.40;;;0.57;;
12725;SDS011;6427;49.754;6.106;2023-08-06T02:13:49;1.83;;;0.50;;
12725;SDS011;6427;49.754;6.106;2023-08-06T02:16:18;1.60;;;0.73;;
12725;SDS011;6427;49.754;6.106;2023-08-06T02:18:45;2.03;;;0.60;;
12725;SDS011;6427;49.754;6.106;2023-08-06T02:21:14;2.22;;;0.47;;
12725;SDS011;6427;49.754;6.106;2023-08-06T02:23:42;1.17;;;0.40;;
12725;SDS011;6427;49.754;6.106;2023-08-06T02:26:09;0.60;;;0.40;;
12725;SDS011;6427;49.754;6.106;2023-08-06T02:28:37;1.33;;;0.50;;
12725;SDS011;6427;49.754;6.106;2023-08-06T02:31:05;2.03;;;0.40;;
12725;SDS011;6427;49.754;6.106;2023-08-06T02:33:32;0.80;;;0.40;;
12725;SDS011;6427;49.754;6.106;2023-08-06T02:36:00;1.30;;;0.30;;
12725;SDS011;6427;49.754;6.106;2023-08-06T02:38:27;0.50;;;0.30;;
12725;SDS011;6427;49.754;6.106;2023-08-06T02:40:55;1.07;;;0.60;;
12725;SDS011;6427;49.754;6.106;2023-08-06T02:43:23;3.28;;;0.80;;
12725;SDS011;6427;49.754;6.106;2023-08-06T02:48:28;0.73;;;0.57;;
12725;SDS011;6427;49.754;6.106;2023-08-06T02:50:58;1.07;;;0.37;;
12725;SDS011;6427;49.754;6.106;2023-08-06T02:53:26;0.73;;;0.40;;
12725;SDS011;6427;49.754;6.106;2023-08-06T02:55:54;2.23;;;0.40;;
12725;SDS011;6427;49.754;6.106;2023-08-06T02:58:23;1.30;;;0.50;;
12725;SDS011;6427;49.754;6.106;2023-08-06T03:01:03;2.13;;;0.53;;
12725;SDS011;6427;49.754;6.106;2023-08-06T03:03:30;0.90;;;0.50;;
12725;SDS011;6427;49.754;6.106;2023-08-06T03:05:59;1.17;;;0.30;;
12725;SDS011;6427;49.754;6.106;2023-08-06T03:08:26;2.20;;;0.40;;
12725;SDS011;6427;49.754;6.106;2023-08-06T03:10:54;0.70;;;0.37;;
12725;SDS011;6427;49.754;6.106;2023-08-06T03:13:21;0.40;;;0.40;;
12725;SDS011;6427;49.754;6.106;2023-08-06T03:15:52;0.30;;;0.30;;
12725;SDS011;6427;49.754;6.106;2023-08-06T03:18:19;1.17;;;0.50;;
12725;SDS011;6427;49.754;6.106;2023-08-06T03:20:47;2.43;;;0.47;;
12725;SDS011;6427;49.754;6.106;2023-08-06T03:23:14;2.77;;;0.63;;
12725;SDS011;6427;49.754;6.106;2023-08-06T03:25:42;2.00;;;0.57;;
12725;SDS011;6427;49.754;6.106;2023-08-06T03:28:09;1.97;;;0.60;;
12725;SDS011;6427;49.754;6.106;2023-08-06T03:30:37;1.98;;;0.70;;
12725;SDS011;6427;49.754;6.106;2023-08-06T03:33:05;0.63;;;0.63;;
12725;SDS011;6427;49.754;6.106;2023-08-06T03:35:32;1.63;;;0.60;;
12725;SDS011;6427;49.754;6.106;2023-08-06T03:38:00;1.47;;;0.70;;
12725;SDS011;6427;49.754;6.106;2023-08-06T03:40:27;2.13;;;0.90;;
12725;SDS011;6427;49.754;6.106;2023-08-06T03:42:55;1.33;;;0.70;;
12725;SDS011;6427;49.754;6.106;2023-08-06T03:45:23;2.17;;;0.93;;
12725;SDS011;6427;49.754;6.106;2023-08-06T03:47:50;2.73;;;0.80;;
12725;SDS011;6427;49.754;6.106;2023-08-06T03:50:18;1.83;;;0.67;;
12725;SDS011;6427;49.754;6.106;2023-08-06T03:52:46;2.10;;;0.80;;
12725;SDS011;6427;49.754;6.106;2023-08-06T03:55:14;0.90;;;0.40;;
12725;SDS011;6427;49.754;6.106;2023-08-06T03:57:42;2.00;;;0.67;;
12725;SDS011;6427;49.754;6.106;2023-08-06T04:00:10;2.50;;;0.70;;
12725;SDS011;6427;49.754;6.106;2023-08-06T04:02:37;1.07;;;0.50;;
12725;SDS011;6427;49.754;6.106;2023-08-06T04:05:05;1.90;;;0.68;;
12725;SDS011;6427;49.754;6.106;2023-08-06T04:07:33;1.23;;;0.60;;
12725;SDS011;6427;49.754;6.106;2023-08-06T04:10:02;1.37;;;0.40;;
12725;SDS011;6427;49.754;6.106;2023-08-06T04:12:29;0.70;;;0.40;;
12725;SDS011;6427;49.754;6.106;2023-08-06T04:14:57;1.10;;;0.50;;
12725;SDS011;6427;49.754;6.106;2023-08-06T04:20:00;0.87;;;0.43;;
12725;SDS011;6427;49.754;6.106;2023-08-06T04:22:27;0.43;;;0.40;;
12725;SDS011;6427;49.754;6.106;2023-08-06T04:24:55;0.43;;;0.40;;
12725;SDS011;6427;49.754;6.106;2023-08-06T04:27:22;1.43;;;0.47;;
12725;SDS011;6427;49.754;6.106;2023-08-06T04:29:50;2.67;;;0.50;;
12725;SDS011;6427;49.754;6.106;2023-08-06T04:32:18;0.60;;;0.50;;
12725;SDS011;6427;49.754;6.106;2023-08-06T04:34:45;1.00;;;0.40;;
12725;SDS011;6427;49.754;6.106;2023-08-06T04:37:13;3.10;;;0.50;;
12725;SDS011;6427;49.754;6.106;2023-08-06T04:39:40;0.50;;;0.40;;
12725;SDS011;6427;49.754;6.106;2023-08-06T04:42:08;1.53;;;0.50;;
12725;SDS011;6427;49.754;6.106;2023-08-06T04:44:36;1.90;;;0.60;;
12725;SDS011;6427;49.754;6.106;2023-08-06T04:47:04;1.03;;;0.60;;
12725;SDS011;6427;49.754;6.106;2023-08-06T04:49:32;1.37;;;0.70;;
12725;SDS011;6427;49.754;6.106;2023-08-06T04:51:59;1.52;;;0.70;;
12725;SDS011;6427;49.754;6.106;2023-08-06T04:54:27;1.90;;;0.90;;
12725;SDS011;6427;49.754;6.106;2023-08-06T04:56:54;2.50;;;0.70;;
12725;SDS011;6427;49.754;6.106;2023-08-06T04:59:22;2.33;;;0.63;;
12725;SDS011;6427;49.754;6.106;2023-08-06T05:01:50;1.33;;;0.80;;
12725;SDS011;6427;49.754;6.106;2023-08-06T05:04:17;1.10;;;0.70;;
12725;SDS011;6427;49.754;6.106;2023-08-06T05:06:45;3.67;;;0.80;;
12725;SDS011;6427;49.754;6.106;2023-08-06T05:09:12;1.87;;;0.60;;
12725;SDS011;6427;49.754;6.106;2023-08-06T05:11:40;0.77;;;0.70;;
12725;SDS011;6427;49.754;6.106;2023-08-06T05:14:08;1.47;;;0.70;;
12725;SDS011;6427;49.754;6.106;2023-08-06T05:16:36;0.80;;;0.50;;
12725;SDS011;6427;49.754;6.106;2023-08-06T05:19:03;1.98;;;0.70;;
12725;SDS011;6427;49.754;6.106;2023-08-06T05:21:31;2.87;;;0.90;;
12725;SDS011;6427;49.754;6.106;2023-08-06T05:23:59;2.67;;;0.60;;
12725;SDS011;6427;49.754;6.106;2023-08-06T05:26:26;0.77;;;0.45;;
12725;SDS011;6427;49.754;6.106;2023-08-06T05:28:54;2.83;;;0.50;;
12725;SDS011;6427;49.754;6.106;2023-08-06T05:31:22;0.50;;;0.50;;
12725;SDS011;6427;49.754;6.106;2023-08-06T05:33:50;0.70;;;0.50;;
12725;SDS011;6427;49.754;6.106;2023-08-06T05:36:17;1.37;;;0.70;;
12725;SDS011;6427;49.754;6.106;2023-08-06T05:38:45;2.13;;;0.63;;
12725;SDS011;6427;49.754;6.106;2023-08-06T05:41:13;0.50;;;0.50;;
12725;SDS011;6427;49.754;6.106;2023-08-06T05:43:40;0.70;;;0.50;;
12725;SDS011;6427;49.754;6.106;2023-08-06T05:46:08;0.83;;;0.60;;
12725;SDS011;6427;49.754;6.106;2023-08-06T05:48:35;2.13;;;0.50;;
12725;SDS011;6427;49.754;6.106;2023-08-06T05:51:03;1.17;;;0.50;;
12725;SDS011;6427;49.754;6.106;2023-08-06T05:53:31;1.13;;;0.70;;
12725;SDS011;6427;49.754;6.106;2023-08-06T05:55:58;1.00;;;0.47;;
12725;SDS011;6427;49.754;6.106;2023-08-06T05:58:26;0.37;;;0.37;;
12725;SDS011;6427;49.754;6.106;2023-08-06T06:00:53;0.80;;;0.40;;
12725;SDS011;6427;49.754;6.106;2023-08-06T06:03:21;1.13;;;0.50;;
12725;SDS011;6427;49.754;6.106;2023-08-06T06:05:49;1.23;;;0.40;;
12725;SDS011;6427;49.754;6.106;2023-08-06T06:08:16;2.17;;;0.30;;
12725;SDS011;6427;49.754;6.106;2023-08-06T06:10:44;0.37;;;0.30;;
12725;SDS011;6427;49.754;6.106;2023-08-06T06:13:11;1.00;;;0.37;;
12725;SDS011;6427;49.754;6.106;2023-08-06T06:15:39;0.27;;;0.27;;
12725;SDS011;6427;49.754;6.106;2023-08-06T06:18:07;1.63;;;0.43;;
12725;SDS011;6427;49.754;6.106;2023-08-06T06:20:34;1.73;;;0.20;;
12725;SDS011;6427;49.754;6.106;2023-08-06T06:23:02;0.40;;;0.17;;
12725;SDS011;6427;49.754;6.106;2023-08-06T06:25:29;0.80;;;0.30;;
12725;SDS011;6427;49.754;6.106;2023-08-06T06:27:57;0.43;;;0.20;;
12725;SDS011;6427;49.754;6.106;2023-08-06T06:30:25;0.37;;;0.20;;
12725;SDS011;6427;49.754;6.106;2023-08-06T06:32:52;0.93;;;0.50;;
12725;SDS011;6427;49.754;6.106;2023-08-06T06:35:20;1.17;;;0.30;;
12725;SDS011;6427;49.754;6.106;2023-08-06T06:37:47;1.37;;;0.37;;
12725;SDS011;6427;49.754;6.106;2023-08-06T06:40:15;1.25;;;0.40;;
12725;SDS011;6427;49.754;6.106;2023-08-06T06:42:42;0.30;;;0.30;;
12725;SDS011;6427;49.754;6.106;2023-08-06T06:45:10;1.67;;;0.30;;
12725;SDS011;6427;49.754;6.106;2023-08-06T06:47:38;0.30;;;0.30;;
12725;SDS011;6427;49.754;6.106;2023-08-06T06:50:05;0.30;;;0.30;;
12725;SDS011;6427;49.754;6.106;2023-08-06T06:52:33;0.70;;;0.20;;
12725;SDS011;6427;49.754;6.106;2023-08-06T06:55:01;1.27;;;0.20;;
12725;SDS011;6427;49.754;6.106;2023-08-06T06:57:28;0.40;;;0.30;;
12725;SDS011;6427;49.754;6.106;2023-08-06T06:59:56;1.03;;;0.30;;
12725;SDS011;6427;49.754;6.106;2023-08-06T07:02:24;0.70;;;0.37;;
12725;SDS011;6427;49.754;6.106;2023-08-06T07:04:52;0.30;;;0.30;;
12725;SDS011;6427;49.754;6.106;2023-08-06T07:07:20;2.00;;;0.40;;
12725;SDS011;6427;49.754;6.106;2023-08-06T07:09:48;1.70;;;0.37;;
12725;SDS011;6427;49.754;6.106;2023-08-06T07:12:16;0.30;;;0.27;;
12725;SDS011;6427;49.754;6.106;2023-08-06T07:14:44;1.13;;;0.30;;
12725;SDS011;6427;49.754;6.106;2023-08-06T07:17:11;1.30;;;0.30;;
12725;SDS011;6427;49.754;6.106;2023-08-06T07:19:39;0.50;;;0.20;;
12725;SDS011;6427;49.754;6.106;2023-08-06T07:22:06;0.43;;;0.30;;
12725;SDS011;6427;49.754;6.106;2023-08-06T07:24:35;0.83;;;0.30;;
12725;SDS011;6427;49.754;6.106;2023-08-06T07:27:02;0.27;;;0.20;;
12725;SDS011;6427;49.754;6.106;2023-08-06T07:29:30;0.30;;;0.20;;
12725;SDS011;6427;49.754;6.106;2023-08-06T07:31:58;1.03;;;0.20;;
12725;SDS011;6427;49.754;6.106;2023-08-06T07:34:25;0.75;;;0.22;;
12725;SDS011;6427;49.754;6.106;2023-08-06T07:36:53;0.20;;;0.20;;
12725;SDS011;6427;49.754;6.106;2023-08-06T07:39:21;1.70;;;0.20;;
12725;SDS011;6427;49.754;6.106;2023-08-06T07:41:49;0.10;;;0.10;;
12725;SDS011;6427;49.754;6.106;2023-08-06T07:44:16;0.30;;;0.20;;
12725;SDS011;6427;49.754;6.106;2023-08-06T07:46:44;0.23;;;0.23;;
12725;SDS011;6427;49.754;6.106;2023-08-06T07:49:12;0.57;;;0.20;;
12725;SDS011;6427;49.754;6.106;2023-08-06T07:51:40;1.80;;;0.20;;
12725;SDS011;6427;49.754;6.106;2023-08-06T07:54:08;0.30;;;0.30;;
12725;SDS011;6427;49.754;6.106;2023-08-06T07:56:35;1.00;;;0.30;;
12725;SDS011;6427;49.754;6.106;2023-08-06T07:59:03;1.90;;;0.30;;
12725;SDS011;6427;49.754;6.106;2023-08-06T08:01:30;2.43;;;0.50;;
12725;SDS011;6427;49.754;6.106;2023-08-06T08:03:58;0.53;;;0.40;;
12725;SDS011;6427;49.754;6.106;2023-08-06T08:06:26;0.87;;;0.40;;
12725;SDS011;6427;49.754;6.106;2023-08-06T08:08:53;0.20;;;0.20;;
12725;SDS011;6427;49.754;6.106;2023-08-06T08:11:21;0.37;;;0.30;;
12725;SDS011;6427;49.754;6.106;2023-08-06T08:13:48;0.20;;;0.20;;
12725;SDS011;6427;49.754;6.106;2023-08-06T08:16:17;0.77;;;0.30;;
12725;SDS011;6427;49.754;6.106;2023-08-06T08:18:44;0.50;;;0.50;;
12725;SDS011;6427;49.754;6.106;2023-08-06T08:21:12;0.30;;;0.20;;
12725;SDS011;6427;49.754;6.106;2023-08-06T08:23:40;0.30;;;0.30;;
12725;SDS011;6427;49.754;6.106;2023-08-06T08:26:07;0.50;;;0.30;;
12725;SDS011;6427;49.754;6.106;2023-08-06T08:28:35;0.20;;;0.20;;
12725;SDS011;6427;49.754;6.106;2023-08-06T08:31:02;0.60;;;0.10;;
12725;SDS011;6427;49.754;6.106;2023-08-06T08:33:30;0.80;;;0.32;;
12725;SDS011;6427;49.754;6.106;2023-08-06T08:35:58;0.70;;;0.40;;
12725;SDS011;6427;49.754;6.106;2023-08-06T08:38:26;0.60;;;0.40;;
12725;SDS011;6427;49.754;6.106;2023-08-06T08:40:54;1.23;;;0.30;;
12725;SDS011;6427;49.754;6.106;2023-08-06T08:43:22;1.00;;;0.53;;
12725;SDS011;6427;49.754;6.106;2023-08-06T08:45:50;1.17;;;0.40;;
12725;SDS011;6427;49.754;6.106;2023-08-06T08:48:18;0.20;;;0.20;;
12725;SDS011;6427;49.754;6.106;2023-08-06T08:50:45;1.57;;;0.57;;
12725;SDS011;6427;49.754;6.106;2023-08-06T08:53:13;1.85;;;0.68;;
12725;SDS011;6427;49.754;6.106;2023-08-06T08:55:40;1.00;;;0.60;;
12725;SDS011;6427;49.754;6.106;2023-08-06T08:58:08;1.80;;;1.00;;
12725;SDS011;6427;49.754;6.106;2023-08-06T09:00:35;1.43;;;0.90;;
12725;SDS011;6427;49.754;6.106;2023-08-06T09:03:04;4.07;;;0.83;;
12725;SDS011;6427;49.754;6.106;2023-08-06T09:05:31;2.83;;;0.87;;
12725;SDS011;6427;49.754;6.106;2023-08-06T09:08:01;1.00;;;0.90;;
12725;SDS011;6427;49.754;6.106;2023-08-06T09:10:26;1.97;;;1.00;;
12725;SDS011;6427;49.754;6.106;2023-08-06T09:12:53;3.97;;;1.10;;
12725;SDS011;6427;49.754;6.106;2023-08-06T09:15:24;4.20;;;1.37;;
12725;SDS011;6427;49.754;6.106;2023-08-06T09:17:52;2.47;;;1.10;;
12725;SDS011;6427;49.754;6.106;2023-08-06T09:20:19;3.05;;;1.40;;
12725;SDS011;6427;49.754;6.106;2023-08-06T09:22:47;3.13;;;1.00;;
12725;SDS011;6427;49.754;6.106;2023-08-06T09:25:20;3.10;;;1.20;;
12725;SDS011;6427;49.754;6.106;2023-08-06T09:27:46;2.93;;;1.17;;
12725;SDS011;6427;49.754;6.106;2023-08-06T09:30:13;2.00;;;1.10;;
12725;SDS011;6427;49.754;6.106;2023-08-06T09:32:47;3.30;;;1.27;;
12725;SDS011;6427;49.754;6.106;2023-08-06T09:35:17;2.87;;;1.67;;
12725;SDS011;6427;49.754;6.106;2023-08-06T09:37:45;3.90;;;1.30;;
12725;SDS011;6427;49.754;6.106;2023-08-06T09:40:25;3.67;;;1.03;;
12725;SDS011;6427;49.754;6.106;2023-08-06T09:42:58;2.17;;;0.90;;
12725;SDS011;6427;49.754;6.106;2023-08-06T09:45:36;1.43;;;0.70;;
12725;SDS011;6427;49.754;6.106;2023-08-06T09:48:07;1.50;;;0.70;;
12725;SDS011;6427;49.754;6.106;2023-08-06T09:50:31;2.45;;;1.17;;
12725;SDS011;6427;49.754;6.106;2023-08-06T09:52:59;2.00;;;1.20;;
12725;SDS011;6427;49.754;6.106;2023-08-06T09:55:26;1.20;;;0.63;;
12725;SDS011;6427;49.754;6.106;2023-08-06T09:57:54;1.33;;;0.50;;
12725;SDS011;6427;49.754;6.106;2023-08-06T10:00:22;1.07;;;0.63;;
12725;SDS011;6427;49.754;6.106;2023-08-06T10:02:49;2.47;;;0.70;;
12725;SDS011;6427;49.754;6.106;2023-08-06T10:05:18;0.85;;;0.45;;
12725;SDS011;6427;49.754;6.106;2023-08-06T10:07:45;0.40;;;0.23;;
12725;SDS011;6427;49.754;6.106;2023-08-06T10:10:13;4.03;;;0.30;;
12725;SDS011;6427;49.754;6.106;2023-08-06T10:12:45;0.83;;;0.30;;
12725;SDS011;6427;49.754;6.106;2023-08-06T10:15:16;0.40;;;0.20;;
12725;SDS011;6427;49.754;6.106;2023-08-06T10:17:40;0.67;;;0.30;;
12725;SDS011;6427;49.754;6.106;2023-08-06T10:20:08;1.45;;;0.37;;
12725;SDS011;6427;49.754;6.106;2023-08-06T10:22:35;1.40;;;0.30;;
12725;SDS011;6427;49.754;6.106;2023-08-06T10:25:02;0.40;;;0.20;;
12725;SDS011;6427;49.754;6.106;2023-08-06T10:27:40;1.13;;;0.33;;
12725;SDS011;6427;49.754;6.106;2023-08-06T10:30:26;1.70;;;0.67;;
12725;SDS011;6427;49.754;6.106;2023-08-06T10:32:56;0.97;;;0.60;;
12725;SDS011;6427;49.754;6.106;2023-08-06T10:35:42;1.48;;;0.50;;
12725;SDS011;6427;49.754;6.106;2023-08-06T10:38:16;2.30;;;0.67;;
12725;SDS011;6427;49.754;6.106;2023-08-06T10:40:40;1.60;;;0.50;;
12725;SDS011;6427;49.754;6.106;2023-08-06T10:43:07;0.90;;;0.47;;
12725;SDS011;6427;49.754;6.106;2023-08-06T10:45:36;4.07;;;0.90;;
12725;SDS011;6427;49.754;6.106;2023-08-06T10:48:03;1.60;;;0.60;;
12725;SDS011;6427;49.754;6.106;2023-08-06T10:50:30;3.00;;;0.60;;
12725;SDS011;6427;49.754;6.106;2023-08-06T10:53:00;1.83;;;0.70;;
12725;SDS011;6427;49.754;6.106;2023-08-06T10:55:27;1.17;;;0.60;;
12725;SDS011;6427;49.754;6.106;2023-08-06T10:57:54;1.23;;;0.90;;
12725;SDS011;6427;49.754;6.106;2023-08-06T11:00:22;2.43;;;0.90;;
12725;SDS011;6427;49.754;6.106;2023-08-06T11:02:49;1.93;;;0.93;;
12725;SDS011;6427;49.754;6.106;2023-08-06T11:05:17;1.90;;;0.90;;
12725;SDS011;6427;49.754;6.106;2023-08-06T11:07:44;2.03;;;0.93;;
12725;SDS011;6427;49.754;6.106;2023-08-06T11:10:13;2.70;;;1.03;;
12725;SDS011;6427;49.754;6.106;2023-08-06T11:12:40;1.57;;;0.80;;
12725;SDS011;6427;49.754;6.106;2023-08-06T11:15:08;2.23;;;0.97;;
12725;SDS011;6427;49.754;6.106;2023-08-06T11:17:36;2.23;;;0.90;;
12725;SDS011;6427;49.754;6.106;2023-08-06T11:20:03;1.13;;;0.63;;
12725;SDS011;6427;49.754;6.106;2023-08-06T11:22:31;1.47;;;0.60;;
12725;SDS011;6427;49.754;6.106;2023-08-06T11:24:58;0.97;;;0.70;;
12725;SDS011;6427;49.754;6.106;2023-08-06T11:27:26;1.93;;;0.87;;
12725;SDS011;6427;49.754;6.106;2023-08-06T11:29:54;3.07;;;0.70;;
12725;SDS011;6427;49.754;6.106;2023-08-06T11:32:21;2.07;;;0.80;;
12725;SDS011;6427;49.754;6.106;2023-08-06T11:34:49;1.70;;;0.73;;
12725;SDS011;6427;49.754;6.106;2023-08-06T11:37:17;1.83;;;0.60;;
12725;SDS011;6427;49.754;6.106;2023-08-06T11:39:46;1.65;;;0.70;;
12725;SDS011;6427;49.754;6.106;2023-08-06T11:42:15;1.87;;;0.53;;
12725;SDS011;6427;49.754;6.106;2023-08-06T11:44:43;1.37;;;0.60;;
12725;SDS011;6427;49.754;6.106;2023-08-06T11:47:14;2.67;;;0.60;;
12725;SDS011;6427;49.754;6.106;2023-08-06T11:49:43;1.10;;;0.60;;
12725;SDS011;6427;49.754;6.106;2023-08-06T11:52:19;1.30;;;0.60;;
12725;SDS011;6427;49.754;6.106;2023-08-06T11:54:47;0.43;;;0.43;;
12725;SDS011;6427;49.754;6.106;2023-08-06T11:57:15;1.50;;;0.50;;
12725;SDS011;6427;49.754;6.106;2023-08-06T11:59:42;4.47;;;0.90;;
12725;SDS011;6427;49.754;6.106;2023-08-06T12:02:10;4.07;;;0.50;;
12725;SDS011;6427;49.754;6.106;2023-08-06T12:07:36;4.00;;;0.53;;
12725;SDS011;6427;49.754;6.106;2023-08-06T12:10:01;0.60;;;0.50;;
12725;SDS011;6427;49.754;6.106;2023-08-06T12:12:29;1.67;;;0.60;;
12725;SDS011;6427;49.754;6.106;2023-08-06T12:14:57;1.50;;;0.40;;
12725;SDS011;6427;49.754;6.106;2023-08-06T12:17:25;0.70;;;0.40;;
12725;SDS011;6427;49.754;6.106;2023-08-06T12:19:52;2.63;;;0.60;;
12725;SDS011;6427;49.754;6.106;2023-08-06T12:22:21;0.50;;;0.40;;
12725;SDS011;6427;49.754;6.106;2023-08-06T12:24:48;1.03;;;0.40;;
12725;SDS011;6427;49.754;6.106;2023-08-06T12:27:17;3.10;;;0.60;;
12725;SDS011;6427;49.754;6.106;2023-08-06T12:29:47;1.60;;;0.43;;
12725;SDS011;6427;49.754;6.106;2023-08-06T12:32:13;2.63;;;0.60;;
12725;SDS011;6427;49.754;6.106;2023-08-06T12:34:40;2.97;;;0.88;;
12725;SDS011;6427;49.754;6.106;2023-08-06T12:37:08;2.83;;;0.60;;
12725;SDS011;6427;49.754;6.106;2023-08-06T12:39:36;2.00;;;0.88;;
12725;SDS011;6427;49.754;6.106;2023-08-06T12:42:04;3.37;;;0.53;;
12725;SDS011;6427;49.754;6.106;2023-08-06T12:44:32;2.10;;;0.50;;
12725;SDS011;6427;49.754;6.106;2023-08-06T12:47:00;2.17;;;0.57;;
12725;SDS011;6427;49.754;6.106;2023-08-06T12:49:27;0.50;;;0.50;;
12725;SDS011;6427;49.754;6.106;2023-08-06T12:51:55;1.13;;;0.60;;
12725;SDS011;6427;49.754;6.106;2023-08-06T12:54:25;1.87;;;0.80;;
12725;SDS011;6427;49.754;6.106;2023-08-06T12:56:53;3.00;;;0.50;;
12725;SDS011;6427;49.754;6.106;2023-08-06T12:59:22;2.77;;;0.80;;
12725;SDS011;6427;49.754;6.106;2023-08-06T13:01:49;1.73;;;0.63;;
12725;SDS011;6427;49.754;6.106;2023-08-06T13:04:17;1.67;;;0.50;;
12725;SDS011;6427;49.754;6.106;2023-08-06T13:06:45;0.80;;;0.50;;
12725;SDS011;6427;49.754;6.106;2023-08-06T13:09:12;1.70;;;0.43;;
12725;SDS011;6427;49.754;6.106;2023-08-06T13:11:40;1.00;;;0.60;;
12725;SDS011;6427;49.754;6.106;2023-08-06T13:14:08;1.20;;;0.60;;
12725;SDS011;6427;49.754;6.106;2023-08-06T13:16:36;1.90;;;0.65;;
12725;SDS011;6427;49.754;6.106;2023-08-06T13:19:04;0.60;;;0.50;;
12725;SDS011;6427;49.754;6.106;2023-08-06T13:21:32;1.33;;;0.57;;
12725;SDS011;6427;49.754;6.106;2023-08-06T13:23:59;1.20;;;0.80;;
12725;SDS011;6427;49.754;6.106;2023-08-06T13:26:27;1.23;;;0.60;;
12725;SDS011;6427;49.754;6.106;2023-08-06T13:28:57;0.77;;;0.40;;
12725;SDS011;6427;49.754;6.106;2023-08-06T13:31:22;1.77;;;0.77;;
12725;SDS011;6427;49.754;6.106;2023-08-06T13:33:50;0.90;;;0.63;;
12725;SDS011;6427;49.754;6.106;2023-08-06T13:36:17;1.00;;;0.50;;
12725;SDS011;6427;49.754;6.106;2023-08-06T13:38:45;2.00;;;0.50;;
12725;SDS011;6427;49.754;6.106;2023-08-06T13:41:12;2.00;;;0.40;;
12725;SDS011;6427;49.754;6.106;2023-08-06T13:43:40;1.52;;;0.60;;
12725;SDS011;6427;49.754;6.106;2023-08-06T13:46:08;1.67;;;0.40;;
12725;SDS011;6427;49.754;6.106;2023-08-06T13:48:35;1.83;;;0.40;;
12725;SDS011;6427;49.754;6.106;2023-08-06T13:51:03;1.92;;;0.70;;
12725;SDS011;6427;49.754;6.106;2023-08-06T13:53:30;1.70;;;0.53;;
12725;SDS011;6427;49.754;6.106;2023-08-06T13:55:59;1.70;;;0.65;;
12725;SDS011;6427;49.754;6.106;2023-08-06T13:58:26;3.03;;;0.50;;
12725;SDS011;6427;49.754;6.106;2023-08-06T14:00:54;4.20;;;1.03;;
12725;SDS011;6427;49.754;6.106;2023-08-06T14:03:22;1.90;;;0.53;;
12725;SDS011;6427;49.754;6.106;2023-08-06T14:05:50;2.33;;;0.60;;
12725;SDS011;6427;49.754;6.106;2023-08-06T14:08:18;2.83;;;0.60;;
12725;SDS011;6427;49.754;6.106;2023-08-06T14:10:45;1.03;;;0.50;;
12725;SDS011;6427;49.754;6.106;2023-08-06T14:13:13;1.87;;;0.70;;
12725;SDS011;6427;49.754;6.106;2023-08-06T14:15:40;3.20;;;0.70;;
12725;SDS011;6427;49.754;6.106;2023-08-06T14:18:09;1.80;;;0.60;;
12725;SDS011;6427;49.754;6.106;2023-08-06T14:20:36;1.13;;;0.60;;
12725;SDS011;6427;49.754;6.106;2023-08-06T14:23:04;2.33;;;1.10;;
12725;SDS011;6427;49.754;6.106;2023-08-06T14:25:32;1.47;;;0.60;;
12725;SDS011;6427;49.754;6.106;2023-08-06T14:27:59;5.00;;;0.70;;
12725;SDS011;6427;49.754;6.106;2023-08-06T14:30:27;2.50;;;0.80;;
12725;SDS011;6427;49.754;6.106;2023-08-06T14:32:54;3.83;;;0.77;;
12725;SDS011;6427;49.754;6.106;2023-08-06T14:35:22;2.60;;;0.83;;
12725;SDS011;6427;49.754;6.106;2023-08-06T14:37:50;3.47;;;1.10;;
12725;SDS011;6427;49.754;6.106;2023-08-06T14:40:17;2.40;;;0.80;;
12725;SDS011;6427;49.754;6.106;2023-08-06T14:42:45;4.53;;;0.70;;
12725;SDS011;6427;49.754;6.106;2023-08-06T14:45:12;2.63;;;0.70;;
12725;SDS011;6427;49.754;6.106;2023-08-06T14:47:40;2.80;;;0.70;;
12725;SDS011;6427;49.754;6.106;2023-08-06T14:50:08;2.93;;;0.63;;
12725;SDS011;6427;49.754;6.106;2023-08-06T14:52:36;1.63;;;0.90;;
12725;SDS011;6427;49.754;6.106;2023-08-06T14:55:04;2.83;;;0.83;;
12725;SDS011;6427;49.754;6.106;2023-08-06T14:57:31;0.63;;;0.40;;
12725;SDS011;6427;49.754;6.106;2023-08-06T14:59:59;1.37;;;0.50;;
12725;SDS011;6427;49.754;6.106;2023-08-06T15:02:27;1.97;;;0.80;;
12725;SDS011;6427;49.754;6.106;2023-08-06T15:04:55;1.73;;;0.50;;
12725;SDS011;6427;49.754;6.106;2023-08-06T15:07:22;0.93;;;0.60;;
12725;SDS011;6427;49.754;6.106;2023-08-06T15:09:50;2.30;;;0.40;;
12725;SDS011;6427;49.754;6.106;2023-08-06T15:12:18;0.77;;;0.43;;
12725;SDS011;6427;49.754;6.106;2023-08-06T15:14:45;1.40;;;0.50;;
12725;SDS011;6427;49.754;6.106;2023-08-06T15:17:14;0.43;;;0.43;;
12725;SDS011;6427;49.754;6.106;2023-08-06T15:19:41;1.53;;;0.73;;